createdAt,value
2017-12-21T00:00:40.492Z,14.90
2017-12-21T00:03:08.429Z,12.48
2017-12-21T00:05:36.442Z,13.25
2017-12-21T00:08:04.638Z,13.10
2017-12-21T00:10:32.671Z,13.30
2017-12-21T00:13:00.630Z,13.07
2017-12-21T00:15:29.415Z,12.50
2017-12-21T00:17:58.173Z,12.73
2017-12-21T00:20:26.163Z,14.05
2017-12-21T00:22:54.083Z,13.85
2017-12-21T00:25:22.080Z,14.35
2017-12-21T00:27:50.007Z,13.70
2017-12-21T00:30:18.008Z,12.77
2017-12-21T00:32:45.960Z,13.05
2017-12-21T00:35:13.957Z,11.55
2017-12-21T00:37:42.124Z,10.32
2017-12-21T00:40:10.118Z,11.75
2017-12-21T00:42:38.104Z,10.18
2017-12-21T00:45:06.171Z,13.75
2017-12-21T00:47:34.163Z,12.23
2017-12-21T00:50:02.180Z,10.65
2017-12-21T00:52:30.202Z,9.63
2017-12-21T00:54:58.890Z,9.93
2017-12-21T00:57:27.646Z,11.40
2017-12-21T00:59:55.536Z,10.43
2017-12-21T01:02:23.493Z,12.00
2017-12-21T01:04:51.390Z,13.30
2017-12-21T01:07:19.377Z,10.43
2017-12-21T01:09:47.270Z,9.73
2017-12-21T01:12:15.233Z,10.90
2017-12-21T01:14:43.132Z,10.95
2017-12-21T01:17:11.072Z,11.90
2017-12-21T01:19:38.970Z,15.52
2017-12-21T01:22:06.920Z,13.57
2017-12-21T01:24:34.813Z,9.40
2017-12-21T01:27:02.754Z,10.82
2017-12-21T01:29:30.647Z,10.65
2017-12-21T01:31:58.580Z,9.50
2017-12-21T01:34:26.465Z,11.15
2017-12-21T01:36:54.626Z,9.85
2017-12-21T01:39:22.529Z,11.02
2017-12-21T01:41:50.526Z,9.07
2017-12-21T01:44:19.248Z,9.27
2017-12-21T01:46:47.176Z,10.48
2017-12-21T01:49:15.121Z,10.15
2017-12-21T01:51:43.063Z,10.18
2017-12-21T01:54:11.021Z,8.93
2017-12-21T01:56:38.940Z,9.82
2017-12-21T01:59:06.906Z,8.65
2017-12-21T02:01:34.841Z,10.27
2017-12-21T02:04:02.789Z,9.93
2017-12-21T02:06:30.932Z,11.27
2017-12-21T02:08:58.890Z,9.18
2017-12-21T02:11:26.852Z,9.13
2017-12-21T02:13:54.809Z,9.63
2017-12-21T02:16:22.702Z,9.30
2017-12-21T02:18:50.661Z,9.10
2017-12-21T02:21:18.650Z,9.70
2017-12-21T02:23:46.656Z,8.60
2017-12-21T02:26:14.625Z,8.95
2017-12-21T02:28:42.640Z,8.95
2017-12-21T02:31:10.619Z,8.20
2017-12-21T02:33:38.647Z,7.65
2017-12-21T02:36:10.229Z,8.70
2017-12-21T02:38:38.254Z,9.18
2017-12-21T02:41:06.992Z,8.23
2017-12-21T02:43:35.022Z,9.70
2017-12-21T02:46:02.997Z,8.35
2017-12-21T02:48:31.022Z,7.93
2017-12-21T02:50:59.003Z,9.35
2017-12-21T02:53:26.974Z,10.43
2017-12-21T02:55:55.005Z,8.75
2017-12-21T02:58:23.006Z,8.85
2017-12-21T03:00:51.026Z,9.18
2017-12-21T03:03:18.977Z,9.82
2017-12-21T03:05:47.756Z,9.73
2017-12-21T03:08:15.683Z,8.25
2017-12-21T03:10:43.645Z,8.20
2017-12-21T03:13:11.619Z,8.05
2017-12-21T03:15:39.690Z,8.40
2017-12-21T03:18:07.601Z,9.48
2017-12-21T03:20:35.605Z,9.60
2017-12-21T03:23:03.537Z,9.77
2017-12-21T03:25:31.497Z,7.70
2017-12-21T03:28:03.384Z,8.82
2017-12-21T03:30:32.130Z,7.93
2017-12-21T03:33:00.060Z,7.72
2017-12-21T03:35:28.037Z,7.25
2017-12-21T03:37:55.951Z,7.80
2017-12-21T03:40:23.966Z,8.15
2017-12-21T03:42:51.882Z,6.95
2017-12-21T03:45:19.829Z,6.55
2017-12-21T03:47:47.738Z,6.12
2017-12-21T03:50:15.717Z,7.35
2017-12-21T03:52:43.644Z,6.97
2017-12-21T03:55:11.607Z,6.57
2017-12-21T03:57:39.703Z,8.00
2017-12-21T04:00:07.657Z,7.65
2017-12-21T04:02:35.618Z,7.87
2017-12-21T04:05:07.541Z,6.40
2017-12-21T04:07:36.251Z,7.80
2017-12-21T04:10:04.177Z,6.20
2017-12-21T04:12:32.107Z,5.68
2017-12-21T04:15:00.004Z,7.05
2017-12-21T04:17:27.988Z,5.55
2017-12-21T04:19:55.900Z,6.57
2017-12-21T04:22:23.819Z,5.70
2017-12-21T04:24:51.696Z,6.30
2017-12-21T04:27:21.759Z,6.95
2017-12-21T04:29:49.635Z,7.03
2017-12-21T04:32:17.578Z,6.20
2017-12-21T04:34:45.497Z,5.87
2017-12-21T04:37:13.453Z,5.60
2017-12-21T04:39:41.329Z,5.90
2017-12-21T04:42:09.309Z,5.45
2017-12-21T04:44:37.213Z,5.90
2017-12-21T04:47:05.201Z,5.05
2017-12-21T04:49:33.108Z,7.12
2017-12-21T04:52:01.065Z,5.60
2017-12-21T04:54:29.002Z,6.12
2017-12-21T04:56:57.770Z,6.40
2017-12-21T04:59:25.655Z,6.72
2017-12-21T05:01:53.565Z,5.43
2017-12-21T05:04:21.516Z,5.87
2017-12-21T05:06:49.450Z,4.87
2017-12-21T05:09:17.403Z,4.72
2017-12-21T05:11:45.331Z,5.18
2017-12-21T05:14:13.294Z,5.35
2017-12-21T05:16:41.194Z,5.22
2017-12-21T05:19:09.137Z,5.55
2017-12-21T05:21:37.069Z,5.82
2017-12-21T05:24:05.074Z,4.32
2017-12-21T05:26:33.954Z,5.60
2017-12-21T05:29:01.882Z,5.40
2017-12-21T05:31:29.822Z,4.40
2017-12-21T05:33:57.750Z,5.20
2017-12-21T05:36:25.654Z,4.75
2017-12-21T05:38:53.564Z,4.60
2017-12-21T05:41:21.458Z,4.78
2017-12-21T05:43:50.158Z,4.65
2017-12-21T05:46:18.084Z,5.03
2017-12-21T05:48:46.025Z,5.10
2017-12-21T05:51:13.939Z,4.80
2017-12-21T05:53:41.882Z,4.32
2017-12-21T05:56:09.881Z,5.75
2017-12-21T05:58:37.856Z,6.28
2017-12-21T06:01:05.806Z,5.62
2017-12-21T06:03:33.721Z,5.53
2017-12-21T06:06:01.719Z,6.93
2017-12-21T06:08:29.617Z,7.15
2017-12-21T06:10:57.549Z,7.85
2017-12-21T06:13:25.420Z,5.60
2017-12-21T06:15:53.342Z,6.22
2017-12-21T06:18:21.272Z,7.45
2017-12-21T06:20:49.234Z,7.50
2017-12-21T06:23:17.275Z,6.68
2017-12-21T06:25:45.210Z,6.00
2017-12-21T06:28:13.122Z,6.18
2017-12-21T06:30:41.059Z,6.62
2017-12-21T06:33:08.945Z,6.40
2017-12-21T06:35:36.889Z,6.00
2017-12-21T06:38:04.776Z,6.40
2017-12-21T06:40:32.702Z,6.45
2017-12-21T06:43:00.640Z,20.40
2017-12-21T06:45:28.572Z,8.55
2017-12-21T06:48:01.244Z,7.85
2017-12-21T06:50:29.191Z,7.57
2017-12-21T06:52:57.083Z,8.35
2017-12-21T06:55:25.020Z,8.30
2017-12-21T06:57:52.919Z,8.13
2017-12-21T07:00:24.106Z,7.65
2017-12-21T07:02:55.104Z,7.50
2017-12-21T07:05:25.800Z,11.10
2017-12-21T07:07:57.585Z,9.25
2017-12-21T07:10:29.224Z,8.45
2017-12-21T07:13:00.063Z,9.60
2017-12-21T07:15:32.453Z,9.20
2017-12-21T07:18:03.722Z,9.68
2017-12-21T07:20:31.814Z,8.60
2017-12-21T07:22:59.711Z,8.90
2017-12-21T07:25:28.386Z,8.10
2017-12-21T07:27:56.300Z,8.43
2017-12-21T07:30:24.166Z,8.48
2017-12-21T07:32:52.125Z,7.97
2017-12-21T07:35:24.210Z,8.90
2017-12-21T07:37:55.683Z,8.40
2017-12-21T07:40:27.239Z,9.13
2017-12-21T07:42:58.095Z,8.95
2017-12-21T07:45:26.149Z,9.35
2017-12-21T07:47:54.105Z,10.07
2017-12-21T07:50:22.005Z,9.50
2017-12-21T07:52:49.945Z,8.98
2017-12-21T07:55:17.825Z,9.80
2017-12-21T07:57:45.780Z,9.43
2017-12-21T08:00:13.669Z,8.95
2017-12-21T08:02:42.389Z,9.45
2017-12-21T08:05:10.293Z,10.20
2017-12-21T08:07:38.239Z,9.07
2017-12-21T08:10:06.122Z,8.10
2017-12-21T08:12:34.152Z,8.45
2017-12-21T08:15:02.035Z,9.70
2017-12-21T08:17:31.232Z,24.12
2017-12-21T08:19:59.129Z,32.40
2017-12-21T08:22:27.393Z,17.30
2017-12-21T08:24:55.254Z,10.00
2017-12-21T08:27:23.260Z,15.15
2017-12-21T08:29:51.147Z,14.38
2017-12-21T08:32:19.075Z,9.55
2017-12-21T08:34:47.036Z,15.32
2017-12-21T08:37:15.145Z,9.70
2017-12-21T08:39:43.080Z,10.75
2017-12-21T08:42:12.548Z,24.60
2017-12-21T08:44:41.498Z,12.55
2017-12-21T08:47:10.559Z,10.85
2017-12-21T08:49:38.502Z,12.27
2017-12-21T08:52:06.387Z,9.23
2017-12-21T08:54:34.394Z,7.72
2017-12-21T08:57:02.307Z,10.63
2017-12-21T08:59:30.249Z,10.70
2017-12-21T09:01:58.136Z,9.65
2017-12-21T09:04:26.139Z,10.90
2017-12-21T09:06:54.683Z,9.98
2017-12-21T09:09:22.626Z,7.87
2017-12-21T09:11:50.547Z,10.23
2017-12-21T09:14:18.483Z,8.35
2017-12-21T09:16:46.492Z,7.22
2017-12-21T09:19:14.419Z,8.90
2017-12-21T09:21:42.302Z,8.02
2017-12-21T09:24:11.115Z,8.93
2017-12-21T09:26:39.093Z,8.25
2017-12-21T09:29:07.055Z,8.35
2017-12-21T09:31:34.987Z,6.87
2017-12-21T09:34:02.881Z,8.00
2017-12-21T09:36:31.618Z,7.35
2017-12-21T09:38:59.517Z,6.20
2017-12-21T09:41:27.471Z,7.97
2017-12-21T09:43:55.365Z,7.65
2017-12-21T09:46:23.860Z,5.97
2017-12-21T09:48:53.436Z,7.43
2017-12-21T09:51:21.365Z,7.78
2017-12-21T09:53:49.250Z,8.27
2017-12-21T09:56:17.218Z,6.40
2017-12-21T09:58:45.126Z,6.65
2017-12-21T10:01:13.099Z,7.32
2017-12-21T10:03:44.761Z,7.32
2017-12-21T10:06:17.146Z,7.00
2017-12-21T10:08:46.154Z,6.72
2017-12-21T10:11:14.091Z,6.68
2017-12-21T10:13:41.986Z,6.70
2017-12-21T10:16:10.738Z,7.82
2017-12-21T10:18:38.633Z,6.53
2017-12-21T10:21:06.571Z,6.82
2017-12-21T10:23:34.485Z,6.25
2017-12-21T10:26:02.462Z,5.95
2017-12-21T10:28:30.420Z,6.15
2017-12-21T10:30:59.142Z,6.03
2017-12-21T10:33:27.048Z,5.90
2017-12-21T10:35:55.004Z,5.60
2017-12-21T10:38:22.949Z,5.62
2017-12-21T10:40:50.886Z,6.60
2017-12-21T10:43:18.798Z,5.93
2017-12-21T10:45:46.700Z,5.95
2017-12-21T10:48:14.645Z,4.87
2017-12-21T10:50:42.544Z,5.12
2017-12-21T10:53:10.483Z,5.00
2017-12-21T10:55:38.381Z,5.97
2017-12-21T10:58:06.451Z,6.12
2017-12-21T11:00:34.350Z,5.65
2017-12-21T11:03:02.302Z,5.20
2017-12-21T11:05:30.239Z,5.43
2017-12-21T11:07:58.196Z,6.05
2017-12-21T11:10:26.090Z,6.65
2017-12-21T11:12:54.059Z,5.55
2017-12-21T11:15:21.996Z,6.43
2017-12-21T11:17:49.960Z,6.87
2017-12-21T11:20:17.888Z,6.78
2017-12-21T11:22:45.856Z,6.72
2017-12-21T11:25:14.542Z,7.12
2017-12-21T11:27:43.475Z,7.35
2017-12-21T11:30:11.396Z,7.30
2017-12-21T11:32:39.422Z,7.43
2017-12-21T11:35:07.362Z,6.22
2017-12-21T11:37:36.149Z,6.93
2017-12-21T11:40:04.175Z,7.35
2017-12-21T11:42:32.113Z,6.75
2017-12-21T11:45:00.056Z,7.65
2017-12-21T11:47:28.802Z,7.45
2017-12-21T11:49:57.061Z,6.78
2017-12-21T11:52:24.986Z,6.80
2017-12-21T11:54:52.953Z,7.62
2017-12-21T11:57:22.494Z,6.87
2017-12-21T11:59:50.454Z,6.97
2017-12-21T12:02:18.393Z,6.80
2017-12-21T12:04:46.351Z,7.30
2017-12-21T12:07:14.367Z,8.10
2017-12-21T12:09:42.417Z,7.40
2017-12-21T12:12:10.291Z,7.20
2017-12-21T12:14:38.232Z,7.78
2017-12-21T12:17:06.142Z,7.75
2017-12-21T12:19:34.670Z,8.60
2017-12-21T12:22:02.594Z,7.78
2017-12-21T12:24:30.659Z,8.10
2017-12-21T12:27:02.582Z,7.20
2017-12-21T12:29:30.688Z,7.10
2017-12-21T12:31:58.790Z,6.65
2017-12-21T12:34:26.913Z,6.97
2017-12-21T12:36:54.920Z,6.60
2017-12-21T12:39:22.899Z,6.37
2017-12-21T12:41:51.131Z,6.03
2017-12-21T12:44:19.111Z,5.07
2017-12-21T12:46:47.049Z,5.18
2017-12-21T12:49:15.017Z,5.78
2017-12-21T12:51:43.490Z,5.28
2017-12-21T12:54:11.392Z,3.70
2017-12-21T12:56:39.428Z,3.60
2017-12-21T12:59:07.636Z,5.00
2017-12-21T13:01:35.617Z,4.22
2017-12-21T13:04:03.532Z,3.80
2017-12-21T13:06:31.487Z,4.87
2017-12-21T13:08:59.423Z,4.95
2017-12-21T13:11:28.162Z,4.60
2017-12-21T13:13:56.068Z,3.17
2017-12-21T13:16:24.053Z,3.60
2017-12-21T13:18:51.984Z,3.05
2017-12-21T13:21:19.973Z,2.80
2017-12-21T13:23:47.882Z,2.72
2017-12-21T13:26:16.032Z,3.30
2017-12-21T13:28:43.956Z,2.80
2017-12-21T13:31:12.878Z,2.90
2017-12-21T13:33:40.793Z,2.70
2017-12-21T13:36:08.783Z,2.55
2017-12-21T13:38:36.728Z,2.85
2017-12-21T13:41:04.697Z,2.47
2017-12-21T13:43:32.616Z,2.40
2017-12-21T13:46:00.593Z,2.10
2017-12-21T13:48:28.505Z,2.78
2017-12-21T13:50:56.516Z,3.00
2017-12-21T13:53:24.479Z,3.60
2017-12-21T13:55:52.473Z,3.05
2017-12-21T13:58:20.502Z,2.90
2017-12-21T14:00:48.473Z,2.87
2017-12-21T14:03:16.473Z,3.45
2017-12-21T14:05:44.405Z,3.28
2017-12-21T14:08:12.356Z,2.62
2017-12-21T14:10:40.315Z,2.78
2017-12-21T14:13:09.070Z,2.75
2017-12-21T14:15:37.016Z,2.90
2017-12-21T14:18:05.251Z,2.40
2017-12-21T14:20:33.150Z,2.58
2017-12-21T14:23:01.107Z,2.47
2017-12-21T14:25:29.076Z,2.30
2017-12-21T14:27:57.083Z,2.60
2017-12-21T14:30:25.135Z,2.65
2017-12-21T14:32:53.155Z,2.70
2017-12-21T14:35:21.141Z,2.35
2017-12-21T14:37:49.118Z,2.60
2017-12-21T14:40:17.810Z,2.90
2017-12-21T14:42:46.595Z,3.58
2017-12-21T14:45:14.564Z,2.60
2017-12-21T14:47:45.481Z,3.10
2017-12-21T14:50:13.394Z,3.70
2017-12-21T14:52:41.439Z,4.05
2017-12-21T14:55:09.408Z,7.53
2017-12-21T14:57:37.400Z,2.55
2017-12-21T15:00:05.337Z,2.47
2017-12-21T15:02:33.319Z,2.58
2017-12-21T15:05:01.314Z,2.28
2017-12-21T15:07:29.240Z,2.50
2017-12-21T15:09:57.379Z,2.42
2017-12-21T15:12:25.311Z,2.40
2017-12-21T15:14:53.298Z,2.30
2017-12-21T15:17:25.676Z,2.87
2017-12-21T15:19:53.650Z,2.75
2017-12-21T15:22:21.614Z,2.95
2017-12-21T15:24:49.592Z,2.97
2017-12-21T15:27:17.565Z,4.22
2017-12-21T15:29:45.699Z,3.58
2017-12-21T15:32:13.734Z,4.25
2017-12-21T15:34:41.798Z,4.28
2017-12-21T15:37:09.788Z,3.70
2017-12-21T15:39:37.872Z,3.53
2017-12-21T15:42:05.968Z,4.53
2017-12-21T15:44:33.927Z,3.90
2017-12-21T15:47:01.828Z,3.30
2017-12-21T15:49:29.811Z,4.43
2017-12-21T15:51:57.721Z,3.87
2017-12-21T15:54:27.728Z,3.50
2017-12-21T15:56:55.622Z,3.70
2017-12-21T15:59:23.571Z,3.70
2017-12-21T16:01:51.503Z,3.53
2017-12-21T16:04:19.452Z,3.90
2017-12-21T16:06:48.607Z,4.00
2017-12-21T16:09:16.545Z,5.07
2017-12-21T16:11:44.526Z,4.90
2017-12-21T16:14:12.537Z,4.60
2017-12-21T16:16:40.608Z,4.40
2017-12-21T16:19:08.499Z,4.30
2017-12-21T16:21:36.478Z,4.30
2017-12-21T16:24:04.375Z,6.15
2017-12-21T16:26:32.331Z,6.15
2017-12-21T16:29:00.233Z,6.57
2017-12-21T16:31:28.199Z,9.20
2017-12-21T16:33:56.492Z,7.80
2017-12-21T16:36:27.963Z,5.70
2017-12-21T16:38:55.877Z,6.20
2017-12-21T16:41:23.876Z,5.78
2017-12-21T16:43:51.809Z,5.30
2017-12-21T16:46:20.589Z,6.65
2017-12-21T16:48:48.535Z,6.45
2017-12-21T16:51:21.887Z,5.05
2017-12-21T16:53:52.683Z,5.60
2017-12-21T16:56:20.849Z,5.00
2017-12-21T16:58:51.145Z,5.25
2017-12-21T17:01:19.105Z,4.05
2017-12-21T17:03:47.025Z,4.50
2017-12-21T17:06:15.004Z,6.43
2017-12-21T17:08:42.906Z,5.03
2017-12-21T17:11:11.003Z,5.68
2017-12-21T17:13:38.924Z,5.87
2017-12-21T17:16:12.843Z,5.47
2017-12-21T17:18:41.708Z,5.85
2017-12-21T17:21:15.366Z,6.37
2017-12-21T17:23:45.188Z,5.87
2017-12-21T17:26:13.493Z,7.40
2017-12-21T17:28:41.458Z,6.97
2017-12-21T17:31:09.392Z,6.43
2017-12-21T17:33:38.089Z,8.52
2017-12-21T17:36:09.580Z,8.70
2017-12-21T17:38:38.285Z,8.98
2017-12-21T17:41:06.263Z,10.50
2017-12-21T17:43:35.049Z,7.80
2017-12-21T17:46:02.992Z,8.18
2017-12-21T17:48:31.027Z,8.27
2017-12-21T17:50:58.988Z,8.32
2017-12-21T17:53:27.006Z,8.13
2017-12-21T17:55:55.689Z,9.60
2017-12-21T17:58:24.419Z,9.45
2017-12-21T18:00:52.390Z,9.65
2017-12-21T18:03:21.158Z,11.93
2017-12-21T18:05:49.123Z,12.37
2017-12-21T18:08:17.194Z,10.13
2017-12-21T18:10:45.176Z,10.80
2017-12-21T18:13:13.176Z,7.50
2017-12-21T18:15:41.126Z,7.20
2017-12-21T18:18:09.140Z,7.45
2017-12-21T18:20:37.092Z,7.85
2017-12-21T18:23:05.194Z,7.53
2017-12-21T18:25:33.299Z,6.85
2017-12-21T18:28:02.298Z,7.78
2017-12-21T18:30:31.094Z,10.02
2017-12-21T18:32:59.030Z,14.27
2017-12-21T18:35:27.080Z,23.98
2017-12-21T18:37:55.082Z,19.67
2017-12-21T18:40:23.847Z,17.65
2017-12-21T18:42:51.791Z,13.27
2017-12-21T18:45:19.833Z,9.95
2017-12-21T18:47:48.926Z,9.07
2017-12-21T18:50:16.955Z,9.70
2017-12-21T18:52:44.984Z,9.52
2017-12-21T18:55:12.966Z,9.95
2017-12-21T18:57:40.906Z,11.70
2017-12-21T19:00:08.958Z,11.93
2017-12-21T19:02:37.686Z,10.00
2017-12-21T19:05:05.752Z,10.60
2017-12-21T19:07:33.700Z,10.80
2017-12-21T19:10:02.469Z,17.30
2017-12-21T19:12:30.412Z,16.95
2017-12-21T19:15:04.098Z,18.12
2017-12-21T19:17:32.377Z,16.77
2017-12-21T19:20:00.437Z,16.67
2017-12-21T19:22:28.403Z,15.25
2017-12-21T19:24:57.688Z,17.80
2017-12-21T19:27:25.711Z,17.60
2017-12-21T19:29:53.827Z,14.87
2017-12-21T19:32:22.651Z,15.05
2017-12-21T19:34:50.867Z,16.48
2017-12-21T19:37:22.101Z,11.15
2017-12-21T19:39:50.246Z,13.73
2017-12-21T19:42:21.272Z,15.60
2017-12-21T19:44:49.296Z,15.65
2017-12-21T19:47:17.409Z,16.77
2017-12-21T19:49:45.499Z,16.77
2017-12-21T19:52:13.607Z,14.40
2017-12-21T19:54:42.490Z,18.77
2017-12-21T19:57:11.337Z,16.77
2017-12-21T19:59:39.263Z,14.95
2017-12-21T20:02:07.329Z,17.33
2017-12-21T20:04:35.405Z,16.73
2017-12-21T20:07:04.292Z,15.65
2017-12-21T20:09:32.221Z,16.40
2017-12-21T20:12:00.184Z,15.00
2017-12-21T20:14:28.085Z,14.40
2017-12-21T20:16:56.056Z,13.15
2017-12-21T20:19:23.965Z,13.52
2017-12-21T20:21:56.728Z,12.63
2017-12-21T20:24:24.686Z,11.50
2017-12-21T20:26:52.653Z,14.00
2017-12-21T20:29:20.618Z,17.12
2017-12-21T20:31:48.604Z,16.25
2017-12-21T20:34:16.750Z,15.57
2017-12-21T20:36:45.690Z,16.08
2017-12-21T20:39:14.794Z,17.80
2017-12-21T20:41:42.849Z,16.77
2017-12-21T20:44:10.770Z,16.27
2017-12-21T20:46:38.670Z,14.15
2017-12-21T20:49:06.642Z,14.50
2017-12-21T20:51:34.580Z,16.70
2017-12-21T20:54:02.568Z,16.92
2017-12-21T20:56:30.471Z,16.02
2017-12-21T20:58:58.406Z,14.10
2017-12-21T21:01:27.818Z,13.80
2017-12-21T21:03:55.753Z,14.75
2017-12-21T21:06:27.420Z,14.90
2017-12-21T21:08:56.211Z,14.77
2017-12-21T21:11:24.191Z,14.20
2017-12-21T21:13:52.164Z,15.45
2017-12-21T21:16:20.099Z,17.70
2017-12-21T21:18:48.864Z,13.62
2017-12-21T21:21:16.806Z,14.50
2017-12-21T21:23:45.128Z,18.12
2017-12-21T21:26:13.829Z,16.75
2017-12-21T21:28:42.036Z,16.67
2017-12-21T21:31:09.986Z,16.65
2017-12-21T21:33:37.987Z,15.65
2017-12-21T21:36:05.900Z,13.62
2017-12-21T21:38:34.662Z,14.50
2017-12-21T21:41:02.602Z,11.63
2017-12-21T21:43:30.566Z,12.80
2017-12-21T21:45:58.478Z,14.10
2017-12-21T21:48:26.456Z,14.10
2017-12-21T21:50:54.366Z,12.63
2017-12-21T21:53:22.320Z,14.40
2017-12-21T21:55:50.237Z,13.20
2017-12-21T21:58:18.134Z,14.13
2017-12-21T22:00:46.135Z,17.35
2017-12-21T22:03:14.052Z,13.73
2017-12-21T22:05:42.052Z,13.55
2017-12-21T22:08:10.880Z,12.25
2017-12-21T22:10:38.920Z,11.05
2017-12-21T22:13:07.588Z,12.77
2017-12-21T22:15:35.590Z,11.90
2017-12-21T22:18:03.532Z,13.73
2017-12-21T22:20:31.522Z,12.10
2017-12-21T22:23:00.191Z,13.95
2017-12-21T22:25:28.158Z,11.02
2017-12-21T22:27:56.232Z,15.43
2017-12-21T22:30:24.226Z,16.98
2017-12-21T22:32:53.737Z,18.77
2017-12-21T22:35:21.738Z,17.08
2017-12-21T22:37:52.656Z,16.65
2017-12-21T22:40:25.089Z,16.15
2017-12-21T22:42:56.721Z,18.23
2017-12-21T22:45:28.149Z,10.02
2017-12-21T22:47:57.044Z,10.50
2017-12-21T22:50:27.766Z,9.07
2017-12-21T22:52:59.109Z,11.75
2017-12-21T22:55:30.049Z,12.95
2017-12-21T22:57:59.655Z,18.60
2017-12-21T23:00:27.683Z,17.77
2017-12-21T23:02:55.654Z,12.70
2017-12-21T23:05:23.636Z,18.75
2017-12-21T23:07:51.586Z,14.87
2017-12-21T23:10:19.476Z,16.15
2017-12-21T23:12:47.411Z,17.02
2017-12-21T23:15:15.325Z,18.75
2017-12-21T23:17:44.023Z,15.45
2017-12-21T23:20:11.923Z,12.57
2017-12-21T23:22:39.873Z,17.52
2017-12-21T23:25:07.806Z,15.52
2017-12-21T23:27:35.816Z,17.45
2017-12-21T23:30:03.750Z,19.85
2017-12-21T23:32:31.723Z,16.20
2017-12-21T23:34:59.652Z,16.27
2017-12-21T23:37:27.635Z,15.10
2017-12-21T23:39:55.535Z,16.65
2017-12-21T23:42:24.269Z,19.85
2017-12-21T23:44:52.189Z,17.20
2017-12-21T23:47:20.133Z,15.82
2017-12-21T23:49:48.046Z,17.67
2017-12-21T23:52:16.825Z,18.45
2017-12-21T23:54:45.580Z,16.60
2017-12-21T23:57:13.749Z,11.80
2017-12-21T23:59:41.691Z,11.05
